sensor_id;sensor_type;location;lat;lon;timestamp;pressure;altitude;pressure_sealevel;temperature;humidity
42591;BME280;28218;53.342;-6.216;2022-11-23T00:01:15;98294.66;;;5.96;100.00
42591;BME280;28218;53.342;-6.216;2022-11-23T00:03:44;98298.50;;;6.07;100.00
42591;BME280;28218;53.342;-6.216;2022-11-23T00:06:13;98283.88;;;6.12;100.00
42591;BME280;28218;53.342;-6.216;2022-11-23T00:08:42;98283.28;;;6.17;100.00
42591;BME280;28218;53.342;-6.216;2022-11-23T00:11:10;98262.94;;;6.19;100.00
42591;BME280;28218;53.342;-6.216;2022-11-23T00:13:40;98252.28;;;6.21;100.00
42591;BME280;28218;53.342;-6.216;2022-11-23T00:16:11;98235.38;;;6.23;100.00
42591;BME280;28218;53.342;-6.216;2022-11-23T00:18:40;98230.34;;;6.28;100.00
42591;BME280;28218;53.342;-6.216;2022-11-23T00:21:10;98227.16;;;6.33;100.00
42591;BME280;28218;53.342;-6.216;2022-11-23T00:23:38;98210.25;;;6.35;100.00
42591;BME280;28218;53.342;-6.216;2022-11-23T00:26:07;98204.59;;;6.38;100.00
42591;BME280;28218;53.342;-6.216;2022-11-23T00:28:35;98185.91;;;6.42;100.00
42591;BME280;28218;53.342;-6.216;2022-11-23T00:31:09;98172.00;;;6.48;100.00
42591;BME280;28218;53.342;-6.216;2022-11-23T00:33:37;98154.31;;;6.50;100.00
42591;BME280;28218;53.342;-6.216;2022-11-23T00:36:07;98150.47;;;6.52;100.00
42591;BME280;28218;53.342;-6.216;2022-11-23T00:38:36;98122.47;;;6.53;100.00
42591;BME280;28218;53.342;-6.216;2022-11-23T00:41:06;98125.50;;;6.56;100.00
42591;BME280;28218;53.342;-6.216;2022-11-23T00:43:34;98104.75;;;6.61;100.00
42591;BME280;28218;53.342;-6.216;2022-11-23T00:46:04;98095.69;;;6.64;100.00
42591;BME280;28218;53.342;-6.216;2022-11-23T00:48:34;98095.88;;;6.69;100.00
42591;BME280;28218;53.342;-6.216;2022-11-23T00:51:05;98078.94;;;6.72;100.00
42591;BME280;28218;53.342;-6.216;2022-11-23T00:53:34;98068.28;;;6.73;100.00
42591;BME280;28218;53.342;-6.216;2022-11-23T00:56:02;98052.59;;;6.73;100.00
42591;BME280;28218;53.342;-6.216;2022-11-23T00:58:31;98040.66;;;6.77;100.00
42591;BME280;28218;53.342;-6.216;2022-11-23T01:01:02;98049.13;;;6.79;100.00
42591;BME280;28218;53.342;-6.216;2022-11-23T01:03:30;98033.81;;;6.83;100.00
42591;BME280;28218;53.342;-6.216;2022-11-23T01:06:06;98015.28;;;6.84;100.00
42591;BME280;28218;53.342;-6.216;2022-11-23T01:08:35;98013.25;;;6.86;100.00
42591;BME280;28218;53.342;-6.216;2022-11-23T01:11:05;98009.63;;;6.87;100.00
42591;BME280;28218;53.342;-6.216;2022-11-23T01:13:33;97994.72;;;6.88;100.00
42591;BME280;28218;53.342;-6.216;2022-11-23T01:16:02;97980.03;;;6.87;100.00
42591;BME280;28218;53.342;-6.216;2022-11-23T01:18:30;97965.13;;;6.87;100.00
42591;BME280;28218;53.342;-6.216;2022-11-23T01:21:00;97949.22;;;6.89;100.00
42591;BME280;28218;53.342;-6.216;2022-11-23T01:23:30;97939.13;;;6.93;100.00
42591;BME280;28218;53.342;-6.216;2022-11-23T01:26:03;97921.75;;;6.98;100.00
42591;BME280;28218;53.342;-6.216;2022-11-23T01:28:31;97912.84;;;7.06;100.00
42591;BME280;28218;53.342;-6.216;2022-11-23T01:31:04;97900.91;;;7.10;100.00
42591;BME280;28218;53.342;-6.216;2022-11-23T01:33:33;97885.19;;;7.10;100.00
42591;BME280;28218;53.342;-6.216;2022-11-23T01:36:08;97878.97;;;7.11;100.00
42591;BME280;28218;53.342;-6.216;2022-11-23T01:38:37;97869.44;;;7.16;100.00
42591;BME280;28218;53.342;-6.216;2022-11-23T01:41:06;97863.56;;;7.21;100.00
42591;BME280;28218;53.342;-6.216;2022-11-23T01:43:34;97863.34;;;7.23;100.00
42591;BME280;28218;53.342;-6.216;2022-11-23T01:46:03;97869.19;;;7.25;100.00
42591;BME280;28218;53.342;-6.216;2022-11-23T01:48:34;97859.84;;;7.29;100.00
42591;BME280;28218;53.342;-6.216;2022-11-23T01:51:03;97862.03;;;7.32;100.00
42591;BME280;28218;53.342;-6.216;2022-11-23T01:53:33;97870.28;;;7.35;100.00
42591;BME280;28218;53.342;-6.216;2022-11-23T01:56:05;97862.97;;;7.37;100.00
42591;BME280;28218;53.342;-6.216;2022-11-23T01:58:37;97851.44;;;7.45;100.00
42591;BME280;28218;53.342;-6.216;2022-11-23T02:01:06;97836.28;;;7.47;100.00
42591;BME280;28218;53.342;-6.216;2022-11-23T02:03:36;97823.84;;;7.42;100.00
42591;BME280;28218;53.342;-6.216;2022-11-23T02:06:09;97799.25;;;7.43;100.00
42591;BME280;28218;53.342;-6.216;2022-11-23T02:08:38;97793.78;;;7.45;100.00
42591;BME280;28218;53.342;-6.216;2022-11-23T02:11:09;97787.28;;;7.48;100.00
42591;BME280;28218;53.342;-6.216;2022-11-23T02:13:40;97772.59;;;7.47;100.00
42591;BME280;28218;53.342;-6.216;2022-11-23T02:16:10;97776.81;;;7.48;100.00
42591;BME280;28218;53.342;-6.216;2022-11-23T02:18:40;97763.72;;;7.48;100.00
42591;BME280;28218;53.342;-6.216;2022-11-23T02:21:10;97740.97;;;7.48;100.00
42591;BME280;28218;53.342;-6.216;2022-11-23T02:23:46;97718.97;;;7.49;100.00
42591;BME280;28218;53.342;-6.216;2022-11-23T02:26:21;97675.59;;;7.53;100.00
42591;BME280;28218;53.342;-6.216;2022-11-23T02:28:53;97663.28;;;7.54;100.00
42591;BME280;28218;53.342;-6.216;2022-11-23T02:31:24;97652.34;;;7.57;100.00
42591;BME280;28218;53.342;-6.216;2022-11-23T02:34:10;97634.38;;;7.60;100.00
42591;BME280;28218;53.342;-6.216;2022-11-23T02:36:39;97629.72;;;7.62;100.00
42591;BME280;28218;53.342;-6.216;2022-11-23T02:39:11;97611.50;;;7.67;100.00
42591;BME280;28218;53.342;-6.216;2022-11-23T02:41:43;97591.88;;;7.70;100.00
42591;BME280;28218;53.342;-6.216;2022-11-23T02:44:21;97573.91;;;7.74;100.00
42591;BME280;28218;53.342;-6.216;2022-11-23T02:46:52;97549.03;;;7.76;100.00
42591;BME280;28218;53.342;-6.216;2022-11-23T02:49:21;97516.13;;;7.80;100.00
42591;BME280;28218;53.342;-6.216;2022-11-23T02:51:49;97500.50;;;7.85;100.00
42591;BME280;28218;53.342;-6.216;2022-11-23T02:54:18;97471.66;;;7.97;100.00
42591;BME280;28218;53.342;-6.216;2022-11-23T02:56:48;97447.22;;;8.08;100.00
42591;BME280;28218;53.342;-6.216;2022-11-23T02:59:16;97427.72;;;8.16;100.00
42591;BME280;28218;53.342;-6.216;2022-11-23T03:01:44;97400.44;;;8.29;100.00
42591;BME280;28218;53.342;-6.216;2022-11-23T03:04:13;97379.75;;;8.32;100.00
42591;BME280;28218;53.342;-6.216;2022-11-23T03:06:41;97356.72;;;8.34;100.00
42591;BME280;28218;53.342;-6.216;2022-11-23T03:09:10;97326.69;;;8.42;100.00
42591;BME280;28218;53.342;-6.216;2022-11-23T03:11:38;97313.06;;;8.57;100.00
42591;BME280;28218;53.342;-6.216;2022-11-23T03:14:08;97298.97;;;8.63;100.00
42591;BME280;28218;53.342;-6.216;2022-11-23T03:16:36;97274.66;;;8.67;100.00
42591;BME280;28218;53.342;-6.216;2022-11-23T03:19:04;97252.47;;;8.75;100.00
42591;BME280;28218;53.342;-6.216;2022-11-23T03:21:32;97234.38;;;8.79;100.00
42591;BME280;28218;53.342;-6.216;2022-11-23T03:24:01;97219.41;;;8.79;100.00
42591;BME280;28218;53.342;-6.216;2022-11-23T03:26:29;97198.97;;;8.81;100.00
42591;BME280;28218;53.342;-6.216;2022-11-23T03:28:57;97165.41;;;8.83;100.00
42591;BME280;28218;53.342;-6.216;2022-11-23T03:31:27;97144.97;;;8.85;100.00
42591;BME280;28218;53.342;-6.216;2022-11-23T03:33:55;97122.66;;;8.88;100.00
42591;BME280;28218;53.342;-6.216;2022-11-23T03:36:23;97088.59;;;8.93;100.00
42591;BME280;28218;53.342;-6.216;2022-11-23T03:38:52;97074.25;;;9.01;100.00
42591;BME280;28218;53.342;-6.216;2022-11-23T03:41:20;97041.44;;;9.03;100.00
42591;BME280;28218;53.342;-6.216;2022-11-23T03:43:49;97032.31;;;9.11;100.00
42591;BME280;28218;53.342;-6.216;2022-11-23T03:46:17;97035.50;;;9.13;100.00
42591;BME280;28218;53.342;-6.216;2022-11-23T03:48:47;97010.81;;;9.14;100.00
42591;BME280;28218;53.342;-6.216;2022-11-23T03:51:15;96992.22;;;9.20;100.00
42591;BME280;28218;53.342;-6.216;2022-11-23T03:53:43;96975.41;;;9.21;100.00
42591;BME280;28218;53.342;-6.216;2022-11-23T03:56:12;96956.00;;;9.23;100.00
42591;BME280;28218;53.342;-6.216;2022-11-23T03:58:40;96909.50;;;9.23;100.00
42591;BME280;28218;53.342;-6.216;2022-11-23T04:01:09;96895.34;;;9.24;100.00
42591;BME280;28218;53.342;-6.216;2022-11-23T04:03:37;96876.47;;;9.32;100.00
42591;BME280;28218;53.342;-6.216;2022-11-23T04:06:07;96847.88;;;9.41;100.00
42591;BME280;28218;53.342;-6.216;2022-11-23T04:08:35;96850.78;;;9.44;100.00
42591;BME280;28218;53.342;-6.216;2022-11-23T04:11:03;96821.38;;;9.47;100.00
42591;BME280;28218;53.342;-6.216;2022-11-23T04:13:31;96819.81;;;9.46;100.00
42591;BME280;28218;53.342;-6.216;2022-11-23T04:15:59;96807.16;;;9.43;100.00
42591;BME280;28218;53.342;-6.216;2022-11-23T04:18:28;96794.03;;;9.43;100.00
42591;BME280;28218;53.342;-6.216;2022-11-23T04:20:56;96787.19;;;9.42;100.00
42591;BME280;28218;53.342;-6.216;2022-11-23T04:23:25;96761.72;;;9.43;100.00
42591;BME280;28218;53.342;-6.216;2022-11-23T04:25:54;96740.97;;;9.41;100.00
42591;BME280;28218;53.342;-6.216;2022-11-23T04:28:22;96686.81;;;9.45;100.00
42591;BME280;28218;53.342;-6.216;2022-11-23T04:30:50;96776.72;;;9.53;100.00
42591;BME280;28218;53.342;-6.216;2022-11-23T04:33:19;96776.69;;;9.42;100.00
42591;BME280;28218;53.342;-6.216;2022-11-23T04:35:47;96787.69;;;9.34;100.00
42591;BME280;28218;53.342;-6.216;2022-11-23T04:38:15;96775.78;;;9.21;100.00
42591;BME280;28218;53.342;-6.216;2022-11-23T04:40:46;96788.88;;;9.11;100.00
42591;BME280;28218;53.342;-6.216;2022-11-23T04:43:16;96785.44;;;9.06;100.00
42591;BME280;28218;53.342;-6.216;2022-11-23T04:45:45;96794.56;;;8.98;100.00
42591;BME280;28218;53.342;-6.216;2022-11-23T04:48:13;96808.72;;;8.92;100.00
42591;BME280;28218;53.342;-6.216;2022-11-23T04:50:41;96819.72;;;8.89;100.00
42591;BME280;28218;53.342;-6.216;2022-11-23T04:53:12;96813.13;;;8.81;100.00
42591;BME280;28218;53.342;-6.216;2022-11-23T04:55:41;96803.91;;;8.79;100.00
42591;BME280;28218;53.342;-6.216;2022-11-23T04:58:10;96793.91;;;8.76;100.00
42591;BME280;28218;53.342;-6.216;2022-11-23T05:00:38;96792.56;;;8.73;100.00
42591;BME280;28218;53.342;-6.216;2022-11-23T05:03:07;96787.03;;;8.69;100.00
42591;BME280;28218;53.342;-6.216;2022-11-23T05:05:37;96789.09;;;8.62;100.00
42591;BME280;28218;53.342;-6.216;2022-11-23T05:08:06;96800.59;;;8.56;100.00
42591;BME280;28218;53.342;-6.216;2022-11-23T05:10:35;96809.22;;;8.52;100.00
42591;BME280;28218;53.342;-6.216;2022-11-23T05:13:03;96809.16;;;8.47;100.00
42591;BME280;28218;53.342;-6.216;2022-11-23T05:15:33;96813.38;;;8.48;100.00
42591;BME280;28218;53.342;-6.216;2022-11-23T05:18:01;96817.03;;;8.47;100.00
42591;BME280;28218;53.342;-6.216;2022-11-23T05:20:30;96825.38;;;8.38;100.00
42591;BME280;28218;53.342;-6.216;2022-11-23T05:22:58;96824.31;;;8.39;100.00
42591;BME280;28218;53.342;-6.216;2022-11-23T05:25:26;96837.09;;;8.36;100.00
42591;BME280;28218;53.342;-6.216;2022-11-23T05:27:55;96839.44;;;8.32;100.00
42591;BME280;28218;53.342;-6.216;2022-11-23T05:30:29;96834.44;;;8.31;100.00
42591;BME280;28218;53.342;-6.216;2022-11-23T05:33:01;96833.91;;;8.29;100.00
42591;BME280;28218;53.342;-6.216;2022-11-23T05:35:30;96836.50;;;8.24;100.00
42591;BME280;28218;53.342;-6.216;2022-11-23T05:37:58;96846.41;;;8.22;100.00
42591;BME280;28218;53.342;-6.216;2022-11-23T05:40:26;96866.31;;;8.17;100.00
42591;BME280;28218;53.342;-6.216;2022-11-23T05:42:54;96875.09;;;8.06;100.00
42591;BME280;28218;53.342;-6.216;2022-11-23T05:45:23;96882.22;;;8.11;100.00
42591;BME280;28218;53.342;-6.216;2022-11-23T05:47:53;96887.47;;;8.11;100.00
42591;BME280;28218;53.342;-6.216;2022-11-23T05:50:24;96913.66;;;8.06;100.00
42591;BME280;28218;53.342;-6.216;2022-11-23T05:52:54;96935.66;;;8.05;100.00
42591;BME280;28218;53.342;-6.216;2022-11-23T05:55:22;96929.91;;;8.08;100.00
42591;BME280;28218;53.342;-6.216;2022-11-23T05:57:51;96938.03;;;8.06;100.00
42591;BME280;28218;53.342;-6.216;2022-11-23T06:00:20;96951.78;;;8.18;100.00
42591;BME280;28218;53.342;-6.216;2022-11-23T06:02:48;96966.50;;;8.19;100.00
42591;BME280;28218;53.342;-6.216;2022-11-23T06:05:16;96986.13;;;8.17;100.00
42591;BME280;28218;53.342;-6.216;2022-11-23T06:07:51;97002.44;;;8.19;100.00
42591;BME280;28218;53.342;-6.216;2022-11-23T06:10:19;97013.41;;;8.16;100.00
42591;BME280;28218;53.342;-6.216;2022-11-23T06:12:47;97024.44;;;8.18;100.00
42591;BME280;28218;53.342;-6.216;2022-11-23T06:15:17;97022.84;;;8.17;100.00
42591;BME280;28218;53.342;-6.216;2022-11-23T06:17:46;97044.59;;;8.17;100.00
42591;BME280;28218;53.342;-6.216;2022-11-23T06:20:14;97052.66;;;8.11;100.00
42591;BME280;28218;53.342;-6.216;2022-11-23T06:22:42;97075.16;;;8.07;100.00
42591;BME280;28218;53.342;-6.216;2022-11-23T06:25:12;97081.91;;;8.03;100.00
42591;BME280;28218;53.342;-6.216;2022-11-23T06:27:40;97091.84;;;8.01;100.00
42591;BME280;28218;53.342;-6.216;2022-11-23T06:30:09;97103.59;;;7.98;100.00
42591;BME280;28218;53.342;-6.216;2022-11-23T06:32:38;97114.81;;;7.93;100.00
42591;BME280;28218;53.342;-6.216;2022-11-23T06:35:06;97132.34;;;7.93;100.00
42591;BME280;28218;53.342;-6.216;2022-11-23T06:37:35;97125.78;;;7.90;100.00
42591;BME280;28218;53.342;-6.216;2022-11-23T06:40:03;97134.50;;;7.96;100.00
42591;BME280;28218;53.342;-6.216;2022-11-23T06:42:33;97144.34;;;7.89;100.00
42591;BME280;28218;53.342;-6.216;2022-11-23T06:45:06;97147.47;;;7.86;100.00
42591;BME280;28218;53.342;-6.216;2022-11-23T06:47:34;97169.44;;;7.85;100.00
42591;BME280;28218;53.342;-6.216;2022-11-23T06:50:03;97181.75;;;7.84;100.00
42591;BME280;28218;53.342;-6.216;2022-11-23T06:52:32;97194.31;;;7.82;100.00
42591;BME280;28218;53.342;-6.216;2022-11-23T06:55:00;97202.88;;;7.78;100.00
42591;BME280;28218;53.342;-6.216;2022-11-23T06:57:28;97215.19;;;7.77;100.00
42591;BME280;28218;53.342;-6.216;2022-11-23T06:59:58;97213.81;;;7.75;100.00
42591;BME280;28218;53.342;-6.216;2022-11-23T07:02:26;97231.38;;;7.74;100.00
42591;BME280;28218;53.342;-6.216;2022-11-23T07:04:54;97252.25;;;7.69;100.00
42591;BME280;28218;53.342;-6.216;2022-11-23T07:07:22;97252.25;;;7.69;100.00
42591;BME280;28218;53.342;-6.216;2022-11-23T07:09:51;97267.97;;;7.69;100.00
42591;BME280;28218;53.342;-6.216;2022-11-23T07:12:23;97293.03;;;7.65;100.00
42591;BME280;28218;53.342;-6.216;2022-11-23T07:14:51;97301.50;;;7.67;100.00
42591;BME280;28218;53.342;-6.216;2022-11-23T07:17:21;97305.91;;;7.66;100.00
42591;BME280;28218;53.342;-6.216;2022-11-23T07:19:49;97323.25;;;7.67;100.00
42591;BME280;28218;53.342;-6.216;2022-11-23T07:22:17;97326.06;;;7.66;100.00
42591;BME280;28218;53.342;-6.216;2022-11-23T07:24:46;97336.56;;;7.66;100.00
42591;BME280;28218;53.342;-6.216;2022-11-23T07:27:15;97360.94;;;7.66;100.00
42591;BME280;28218;53.342;-6.216;2022-11-23T07:29:44;97375.31;;;7.64;100.00
42591;BME280;28218;53.342;-6.216;2022-11-23T07:32:12;97394.69;;;7.63;100.00
42591;BME280;28218;53.342;-6.216;2022-11-23T07:34:42;97396.72;;;7.61;100.00
42591;BME280;28218;53.342;-6.216;2022-11-23T07:37:10;97411.31;;;7.57;100.00
42591;BME280;28218;53.342;-6.216;2022-11-23T07:39:39;97426.22;;;7.56;100.00
42591;BME280;28218;53.342;-6.216;2022-11-23T07:42:23;97430.31;;;7.52;100.00
42591;BME280;28218;53.342;-6.216;2022-11-23T07:45:03;97441.84;;;7.51;100.00
42591;BME280;28218;53.342;-6.216;2022-11-23T07:47:32;97454.59;;;7.48;100.00
42591;BME280;28218;53.342;-6.216;2022-11-23T07:50:01;97455.97;;;7.50;100.00
42591;BME280;28218;53.342;-6.216;2022-11-23T07:52:30;97468.28;;;7.50;100.00
42591;BME280;28218;53.342;-6.216;2022-11-23T07:54:58;97468.28;;;7.50;100.00
42591;BME280;28218;53.342;-6.216;2022-11-23T07:57:27;97469.88;;;7.51;100.00
42591;BME280;28218;53.342;-6.216;2022-11-23T07:59:55;97483.75;;;7.51;100.00
42591;BME280;28218;53.342;-6.216;2022-11-23T08:02:23;97488.44;;;7.49;100.00
42591;BME280;28218;53.342;-6.216;2022-11-23T08:04:52;97498.91;;;7.49;100.00
42591;BME280;28218;53.342;-6.216;2022-11-23T08:07:22;97503.13;;;7.50;100.00
42591;BME280;28218;53.342;-6.216;2022-11-23T08:09:50;97498.13;;;7.49;100.00
42591;BME280;28218;53.342;-6.216;2022-11-23T08:12:19;97514.63;;;7.49;100.00
42591;BME280;28218;53.342;-6.216;2022-11-23T08:14:47;97518.50;;;7.47;100.00
42591;BME280;28218;53.342;-6.216;2022-11-23T08:17:15;97516.66;;;7.47;100.00
42591;BME280;28218;53.342;-6.216;2022-11-23T08:19:43;97523.72;;;7.47;100.00
42591;BME280;28218;53.342;-6.216;2022-11-23T08:22:12;97530.56;;;7.48;100.00
42591;BME280;28218;53.342;-6.216;2022-11-23T08:24:43;97541.63;;;7.50;100.00
42591;BME280;28218;53.342;-6.216;2022-11-23T08:27:11;97535.38;;;7.51;100.00
42591;BME280;28218;53.342;-6.216;2022-11-23T08:29:39;97549.03;;;7.53;100.00
42591;BME280;28218;53.342;-6.216;2022-11-23T08:32:08;97536.38;;;7.50;100.00
42591;BME280;28218;53.342;-6.216;2022-11-23T08:34:36;97545.59;;;7.52;100.00
42591;BME280;28218;53.342;-6.216;2022-11-23T08:37:04;97541.97;;;7.53;100.00
42591;BME280;28218;53.342;-6.216;2022-11-23T08:39:32;97558.94;;;7.51;100.00
42591;BME280;28218;53.342;-6.216;2022-11-23T08:42:02;97563.75;;;7.54;100.00
42591;BME280;28218;53.342;-6.216;2022-11-23T08:44:31;97566.91;;;7.56;100.00
42591;BME280;28218;53.342;-6.216;2022-11-23T08:47:00;97578.19;;;7.56;100.00
42591;BME280;28218;53.342;-6.216;2022-11-23T08:49:28;97576.38;;;7.57;100.00
42591;BME280;28218;53.342;-6.216;2022-11-23T08:51:56;97599.94;;;7.57;100.00
42591;BME280;28218;53.342;-6.216;2022-11-23T08:54:25;97599.75;;;7.58;100.00
42591;BME280;28218;53.342;-6.216;2022-11-23T08:56:53;97614.31;;;7.54;100.00
42591;BME280;28218;53.342;-6.216;2022-11-23T08:59:23;97620.25;;;7.61;100.00
42591;BME280;28218;53.342;-6.216;2022-11-23T09:01:51;97634.13;;;7.62;100.00
42591;BME280;28218;53.342;-6.216;2022-11-23T09:04:20;97646.00;;;7.64;100.00
42591;BME280;28218;53.342;-6.216;2022-11-23T09:06:48;97656.63;;;7.69;100.00
42591;BME280;28218;53.342;-6.216;2022-11-23T09:09:16;97674.72;;;7.71;100.00
42591;BME280;28218;53.342;-6.216;2022-11-23T09:11:44;97677.94;;;7.73;100.00
42591;BME280;28218;53.342;-6.216;2022-11-23T09:14:12;97682.50;;;7.78;100.00
42591;BME280;28218;53.342;-6.216;2022-11-23T09:16:42;97691.72;;;7.80;100.00
42591;BME280;28218;53.342;-6.216;2022-11-23T09:19:12;97699.59;;;7.80;100.00
42591;BME280;28218;53.342;-6.216;2022-11-23T09:21:40;97702.81;;;7.82;100.00
42591;BME280;28218;53.342;-6.216;2022-11-23T09:24:09;97704.41;;;7.83;100.00
42591;BME280;28218;53.342;-6.216;2022-11-23T09:26:38;97717.63;;;7.88;100.00
42591;BME280;28218;53.342;-6.216;2022-11-23T09:29:06;97728.91;;;7.89;100.00
42591;BME280;28218;53.342;-6.216;2022-11-23T09:31:35;97747.63;;;7.92;100.00
42591;BME280;28218;53.342;-6.216;2022-11-23T09:34:05;97743.75;;;7.95;100.00
42591;BME280;28218;53.342;-6.216;2022-11-23T09:36:33;97746.94;;;7.97;100.00
42591;BME280;28218;53.342;-6.216;2022-11-23T09:39:01;97759.84;;;7.99;100.00
42591;BME280;28218;53.342;-6.216;2022-11-23T09:42:02;97759.63;;;8.00;100.00
42591;BME280;28218;53.342;-6.216;2022-11-23T09:44:47;97755.31;;;8.06;100.00
42591;BME280;28218;53.342;-6.216;2022-11-23T09:47:31;97767.50;;;8.12;100.00
42591;BME280;28218;53.342;-6.216;2022-11-23T09:50:09;97766.47;;;8.13;100.00
42591;BME280;28218;53.342;-6.216;2022-11-23T09:52:44;97771.66;;;8.19;100.00
42591;BME280;28218;53.342;-6.216;2022-11-23T09:55:17;97776.44;;;8.23;100.00
42591;BME280;28218;53.342;-6.216;2022-11-23T09:57:51;97790.13;;;8.25;100.00
42591;BME280;28218;53.342;-6.216;2022-11-23T10:00:23;97789.47;;;8.29;100.00
42591;BME280;28218;53.342;-6.216;2022-11-23T10:02:52;97795.28;;;8.31;100.00
42591;BME280;28218;53.342;-6.216;2022-11-23T10:05:25;97800.47;;;8.38;100.00
42591;BME280;28218;53.342;-6.216;2022-11-23T10:08:02;97815.06;;;8.45;100.00
42591;BME280;28218;53.342;-6.216;2022-11-23T10:10:38;97825.69;;;8.51;100.00
42591;BME280;28218;53.342;-6.216;2022-11-23T10:13:22;97823.19;;;8.56;100.00
42591;BME280;28218;53.342;-6.216;2022-11-23T10:16:07;97828.00;;;8.59;100.00
42591;BME280;28218;53.342;-6.216;2022-11-23T10:18:46;97842.25;;;8.63;100.00
42591;BME280;28218;53.342;-6.216;2022-11-23T10:21:26;97846.47;;;8.64;100.00
42591;BME280;28218;53.342;-6.216;2022-11-23T10:24:04;97863.63;;;8.66;100.00
42591;BME280;28218;53.342;-6.216;2022-11-23T10:26:39;97865.66;;;8.64;100.00
42591;BME280;28218;53.342;-6.216;2022-11-23T10:29:12;97868.06;;;8.66;100.00
42591;BME280;28218;53.342;-6.216;2022-11-23T10:31:44;97874.69;;;8.68;100.00
42591;BME280;28218;53.342;-6.216;2022-11-23T10:34:25;97886.56;;;8.71;100.00
42591;BME280;28218;53.342;-6.216;2022-11-23T10:37:01;97887.84;;;8.80;100.00
42591;BME280;28218;53.342;-6.216;2022-11-23T10:39:30;97894.56;;;8.88;100.00
42591;BME280;28218;53.342;-6.216;2022-11-23T10:42:00;97901.78;;;8.92;100.00
42591;BME280;28218;53.342;-6.216;2022-11-23T10:44:36;97907.25;;;9.03;100.00
42591;BME280;28218;53.342;-6.216;2022-11-23T10:47:04;97909.22;;;9.07;100.00
42591;BME280;28218;53.342;-6.216;2022-11-23T10:49:34;97909.34;;;9.12;100.00
42591;BME280;28218;53.342;-6.216;2022-11-23T10:52:05;97900.31;;;9.20;100.00
42591;BME280;28218;53.342;-6.216;2022-11-23T10:54:39;97906.84;;;9.29;100.00
42591;BME280;28218;53.342;-6.216;2022-11-23T10:57:21;97909.59;;;9.34;100.00
42591;BME280;28218;53.342;-6.216;2022-11-23T10:59:57;97916.88;;;9.44;100.00
42591;BME280;28218;53.342;-6.216;2022-11-23T11:02:26;97919.88;;;9.47;100.00
42591;BME280;28218;53.342;-6.216;2022-11-23T11:05:13;97911.97;;;9.59;100.00
42591;BME280;28218;53.342;-6.216;2022-11-23T11:07:43;97916.09;;;9.67;100.00
42591;BME280;28218;53.342;-6.216;2022-11-23T11:10:36;97925.66;;;9.73;100.00
42591;BME280;28218;53.342;-6.216;2022-11-23T11:13:23;97923.72;;;9.80;100.00
42591;BME280;28218;53.342;-6.216;2022-11-23T11:15:54;97922.00;;;9.86;100.00
42591;BME280;28218;53.342;-6.216;2022-11-23T11:18:25;97918.13;;;9.88;100.00
42591;BME280;28218;53.342;-6.216;2022-11-23T11:20:57;97927.13;;;9.92;100.00
42591;BME280;28218;53.342;-6.216;2022-11-23T11:23:27;97923.00;;;9.96;100.00
42591;BME280;28218;53.342;-6.216;2022-11-23T11:26:06;97912.47;;;9.96;100.00
42591;BME280;28218;53.342;-6.216;2022-11-23T11:28:37;97915.34;;;9.95;100.00
42591;BME280;28218;53.342;-6.216;2022-11-23T11:31:29;97927.41;;;9.79;100.00
42591;BME280;28218;53.342;-6.216;2022-11-23T11:34:06;97942.25;;;9.73;100.00
42591;BME280;28218;53.342;-6.216;2022-11-23T11:36:40;97963.66;;;9.65;100.00
42591;BME280;28218;53.342;-6.216;2022-11-23T11:39:17;97984.09;;;9.52;100.00
42591;BME280;28218;53.342;-6.216;2022-11-23T11:41:49;97998.00;;;9.40;100.00
42591;BME280;28218;53.342;-6.216;2022-11-23T11:44:20;97998.94;;;9.34;100.00
42591;BME280;28218;53.342;-6.216;2022-11-23T11:46:54;97998.69;;;9.24;100.00
42591;BME280;28218;53.342;-6.216;2022-11-23T11:49:27;97986.78;;;9.21;100.00
42591;BME280;28218;53.342;-6.216;2022-11-23T11:52:03;97983.59;;;9.19;100.00
42591;BME280;28218;53.342;-6.216;2022-11-23T11:54:40;97977.53;;;9.19;100.00
42591;BME280;28218;53.342;-6.216;2022-11-23T11:57:16;97976.06;;;9.23;100.00
42591;BME280;28218;53.342;-6.216;2022-11-23T11:59:47;97975.47;;;9.21;100.00
42591;BME280;28218;53.342;-6.216;2022-11-23T12:02:22;97980.84;;;9.26;100.00
42591;BME280;28218;53.342;-6.216;2022-11-23T12:04:56;97977.66;;;9.24;100.00
42591;BME280;28218;53.342;-6.216;2022-11-23T12:07:30;97970.69;;;9.30;100.00
42591;BME280;28218;53.342;-6.216;2022-11-23T12:10:05;97969.56;;;9.37;100.00
42591;BME280;28218;53.342;-6.216;2022-11-23T12:12:34;97971.75;;;9.52;100.00
42591;BME280;28218;53.342;-6.216;2022-11-23T12:15:04;97966.16;;;9.60;100.00
42591;BME280;28218;53.342;-6.216;2022-11-23T12:18:27;97977.00;;;9.64;100.00
42591;BME280;28218;53.342;-6.216;2022-11-23T12:21:03;97976.78;;;9.77;100.00
42591;BME280;28218;53.342;-6.216;2022-11-23T12:23:42;97979.06;;;9.85;100.00
42591;BME280;28218;53.342;-6.216;2022-11-23T12:26:25;97983.88;;;9.88;100.00
42591;BME280;28218;53.342;-6.216;2022-11-23T12:29:12;97989.25;;;9.93;100.00
42591;BME280;28218;53.342;-6.216;2022-11-23T12:31:47;97984.09;;;9.98;100.00
42591;BME280;28218;53.342;-6.216;2022-11-23T12:34:45;97998.03;;;9.99;100.00
42591;BME280;28218;53.342;-6.216;2022-11-23T12:37:25;97992.53;;;10.01;100.00
42591;BME280;28218;53.342;-6.216;2022-11-23T12:40:12;97997.78;;;10.01;100.00
42591;BME280;28218;53.342;-6.216;2022-11-23T12:42:45;97980.53;;;10.05;100.00
42591;BME280;28218;53.342;-6.216;2022-11-23T12:45:34;97989.34;;;9.98;100.00
42591;BME280;28218;53.342;-6.216;2022-11-23T12:48:20;97998.28;;;9.97;100.00
42591;BME280;28218;53.342;-6.216;2022-11-23T12:50:56;98002.50;;;9.98;100.00
42591;BME280;28218;53.342;-6.216;2022-11-23T12:53:37;98001.81;;;9.91;100.00
42591;BME280;28218;53.342;-6.216;2022-11-23T12:56:15;98017.38;;;9.81;100.00
42591;BME280;28218;53.342;-6.216;2022-11-23T12:58:48;98020.78;;;9.82;100.00
42591;BME280;28218;53.342;-6.216;2022-11-23T13:01:18;98029.47;;;9.82;100.00
42591;BME280;28218;53.342;-6.216;2022-11-23T13:04:06;98022.38;;;9.83;100.00
42591;BME280;28218;53.342;-6.216;2022-11-23T13:10:12;98027.22;;;9.97;100.00
42591;BME280;28218;53.342;-6.216;2022-11-23T13:12:54;98020.13;;;9.98;100.00
42591;BME280;28218;53.342;-6.216;2022-11-23T13:15:41;98016.44;;;9.99;100.00